Terminal Aerodrome Forecast
Issued by NWS Wilmington, OH

Current Version | Previous Version | Text Only | Print | Product List | Glossary Off
Versions: 1 2 3 4 5 6 7 8 9 10 11 12 13 14 15 16 17 18 19 20 21 22 23 24 25 26 27 28 29 30 31 32 33 34 35

000
FTUS41 KILN 302217 AAB
TAFCVG
TAF AMD
KCVG 302217Z 3022/0124 14010KT P6SM VCSH OVC008
     FM010000 17010KT 4SM BR VCTS BKN015CB
      TEMPO 0103/0107 2SM SHRA BR OVC008
     FM010700 18006KT 4SM BR OVC007
     FM011400 24005KT P6SM BKN015
     FM011800 23006KT P6SM BKN035=

USA.gov is the U.S. government's official web portal to all federal, state and local government web resources and services.